Terminal Aerodrome Forecast
Issued by NWS

Home | Current Version | Previous Version | Text Only | Print | Product List | Glossary On
Versions: 1 2 3 4 5 6 7 8 9 10 11 12 13 14 15 16 17 18 19 20 21 22
000
FTUS41 KPHI 260555
TAFMIV
TAF
KMIV 260555Z 2606/2706 05007KT 1SM BR VCSH OVC003
      TEMPO 2606/2610 1/2SM FG VV002
     FM261000 03008KT 1/2SM FG VV002
     FM261400 36004KT 3SM BR OVC004
     FM261600 35004KT P6SM OVC008
     FM261800 VRB03KT P6SM OVC010
     FM262100 VRB03KT P6SM BKN020
     FM270100 00000KT P6SM BKN010
     FM270300 00000KT 3SM BR OVC006=

USA.gov is the U.S. government's official web portal to all federal, state and local government web resources and services.